Time;durP1;ratioP1;P1;durP2;ratioP2;P2;SDS_P1;SDS_P2;PMS_P1;PMS_P2;Temp;Humidity;BMP_temperature;BMP_pressure;BME280_temperature;BME280_humidity;BME280_pressure;Samples;Min_cycle;Max_cycle;Signal;HPM_P1;HPM_P2
2020/12/05 00:02:23;;;;;;;27.38;25.38;;;;;;;;;;5075354;28;20223;-83
2020/12/05 00:04:50;;;;;;;26.58;24.55;;;;;;;;;;5075180;28;20212;-84
2020/12/05 00:07:19;;;;;;;26.42;24.63;;;;;;;;;;5074612;28;20318;-83
2020/12/05 00:09:46;;;;;;;24.70;23.08;;;;;;;;;;5073850;28;20244;-83
2020/12/05 00:12:13;;;;;;;26.30;24.50;;;;;;;;;;5074994;28;20256;-83
2020/12/05 00:14:40;;;;;;;25.88;23.98;;;;;;;;;;5074374;28;20232;-84
2020/12/05 00:17:08;;;;;;;26.05;24.25;;;;;;;;;;5074791;28;20200;-84
2020/12/05 00:19:35;;;;;;;25.80;23.90;;;;;;;;;;5075176;28;20583;-83
2020/12/05 00:22:02;;;;;;;24.85;23.20;;;;;;;;;;5074548;28;20240;-83
2020/12/05 00:24:30;;;;;;;25.30;23.48;;;;;;;;;;5075077;28;20204;-83
2020/12/05 00:26:57;;;;;;;25.38;23.65;;;;;;;;;;5076250;28;20193;-83
2020/12/05 00:29:24;;;;;;;24.60;23.00;;;;;;;;;;5080128;28;20673;-83
2020/12/05 00:31:54;;;;;;;24.88;23.08;;;;;;;;;;5079635;28;20233;-83
2020/12/05 00:34:22;;;;;;;24.85;22.85;;;;;;;;;;5075826;28;20595;-83
2020/12/05 00:36:49;;;;;;;24.67;22.98;;;;;;;;;;5074794;28;20190;-83
2020/12/05 00:39:16;;;;;;;25.33;23.42;;;;;;;;;;5075106;28;20665;-83
2020/12/05 00:41:43;;;;;;;24.95;23.35;;;;;;;;;;5075413;28;20251;-83
2020/12/05 00:44:10;;;;;;;24.80;23.15;;;;;;;;;;5074543;28;20196;-83
2020/12/05 00:46:40;;;;;;;25.08;23.50;;;;;;;;;;5056676;28;20208;-83
2020/12/05 00:49:07;;;;;;;25.63;23.92;;;;;;;;;;5074767;28;20244;-83
2020/12/05 00:51:34;;;;;;;24.30;22.70;;;;;;;;;;5074513;28;20186;-83
2020/12/05 00:54:01;;;;;;;26.13;24.23;;;;;;;;;;5074416;28;20646;-83
2020/12/05 00:56:28;;;;;;;26.73;24.67;;;;;;;;;;5074631;28;20196;-83
2020/12/05 00:58:56;;;;;;;24.83;23.17;;;;;;;;;;5074192;28;20646;-83
2020/12/05 01:01:22;;;;;;;25.10;23.50;;;;;;;;;;5074290;28;20233;-83
2020/12/05 01:03:49;;;;;;;24.38;22.67;;;;;;;;;;5074882;28;20189;-82
2020/12/05 01:06:16;;;;;;;24.02;22.33;;;;;;;;;;5074508;28;20194;-83
2020/12/05 01:08:43;;;;;;;23.90;22.20;;;;;;;;;;5056889;28;20611;-84
2020/12/05 01:11:12;;;;;;;24.80;23.00;;;;;;;;;;5074640;28;20189;-83
2020/12/05 01:13:38;;;;;;;25.05;23.05;;;;;;;;;;5074368;28;20230;-83
2020/12/05 01:16:06;;;;;;;25.05;23.35;;;;;;;;;;5074527;28;20189;-83
2020/12/05 01:18:33;;;;;;;24.52;22.83;;;;;;;;;;5074418;28;20525;-83
2020/12/05 01:21:00;;;;;;;25.55;23.75;;;;;;;;;;5076879;28;20309;-83
2020/12/05 01:23:27;;;;;;;25.55;23.70;;;;;;;;;;5078586;28;20251;-83
2020/12/05 01:25:54;;;;;;;26.52;24.73;;;;;;;;;;5078437;28;20219;-83
2020/12/05 01:28:21;;;;;;;26.30;24.45;;;;;;;;;;5060836;28;20205;-83
2020/12/05 01:30:47;;;;;;;27.75;25.52;;;;;;;;;;5078139;28;20217;-83
2020/12/05 01:33:15;;;;;;;26.25;24.35;;;;;;;;;;5077816;28;20567;-83
2020/12/05 01:35:42;;;;;;;26.80;24.80;;;;;;;;;;5078406;28;20586;-83
2020/12/05 01:38:09;;;;;;;26.88;24.65;;;;;;;;;;5078120;28;20259;-83
2020/12/05 01:40:36;;;;;;;26.85;24.83;;;;;;;;;;5078173;28;20259;-83
2020/12/05 01:43:03;;;;;;;25.95;23.98;;;;;;;;;;5078212;28;20190;-83
2020/12/05 01:45:30;;;;;;;26.58;24.67;;;;;;;;;;5077495;28;20213;-83
2020/12/05 01:47:57;;;;;;;25.75;23.95;;;;;;;;;;5078336;28;20190;-83
2020/12/05 01:50:25;;;;;;;26.00;24.13;;;;;;;;;;5078143;28;20245;-83
2020/12/05 01:52:51;;;;;;;26.13;24.02;;;;;;;;;;5060091;28;20267;-83
2020/12/05 01:55:19;;;;;;;24.65;23.05;;;;;;;;;;5059678;28;20198;-83
2020/12/05 01:57:46;;;;;;;25.65;23.85;;;;;;;;;;5077681;28;20647;-83
2020/12/05 02:00:12;;;;;;;24.63;22.92;;;;;;;;;;5077595;28;20200;-83
2020/12/05 02:02:39;;;;;;;25.58;23.73;;;;;;;;;;5059953;28;20230;-83
2020/12/05 02:05:10;;;;;;;25.15;23.25;;;;;;;;;;5077441;28;20637;-83
2020/12/05 02:07:45;;;;;;;23.95;22.35;;;;;;;;;;5077676;28;20194;-83
2020/12/05 02:10:14;;;;;;;25.02;23.40;;;;;;;;;;5077417;28;20200;-83
2020/12/05 02:12:45;;;;;;;24.58;22.90;;;;;;;;;;5078126;28;20596;-83
2020/12/05 02:15:13;;;;;;;24.63;22.88;;;;;;;;;;5077286;28;20225;-83
2020/12/05 02:17:44;;;;;;;25.33;23.52;;;;;;;;;;5077396;28;20185;-82
2020/12/05 02:20:12;;;;;;;25.15;23.45;;;;;;;;;;5077403;28;20200;-83
2020/12/05 02:22:43;;;;;;;25.60;23.80;;;;;;;;;;5076746;28;20277;-83
2020/12/05 02:25:12;;;;;;;25.30;23.60;;;;;;;;;;5077244;28;20643;-83
2020/12/05 02:27:42;;;;;;;25.88;24.08;;;;;;;;;;5077956;28;20609;-83
2020/12/05 02:30:09;;;;;;;26.30;24.30;;;;;;;;;;5078165;28;20251;-83
2020/12/05 02:32:36;;;;;;;25.35;23.65;;;;;;;;;;5076340;28;20234;-84
2020/12/05 02:35:03;;;;;;;26.33;24.27;;;;;;;;;;5077312;28;20193;-83
2020/12/05 02:37:31;;;;;;;25.23;23.60;;;;;;;;;;5060192;28;20190;-83
2020/12/05 02:39:58;;;;;;;25.98;24.08;;;;;;;;;;5077175;28;20193;-83
2020/12/05 02:42:26;;;;;;;26.38;24.55;;;;;;;;;;5077045;28;20248;-83
2020/12/05 02:44:53;;;;;;;26.42;24.30;;;;;;;;;;5076746;28;20194;-83
2020/12/05 02:47:21;;;;;;;25.92;24.02;;;;;;;;;;5077129;28;20197;-83
2020/12/05 02:49:48;;;;;;;26.67;24.83;;;;;;;;;;5076559;28;20205;-83
2020/12/05 02:52:15;;;;;;;25.85;23.90;;;;;;;;;;5077014;28;20550;-83
2020/12/05 02:54:42;;;;;;;27.75;25.20;;;;;;;;;;5076649;28;20604;-83
2020/12/05 02:57:09;;;;;;;26.77;24.80;;;;;;;;;;5076831;28;20612;-83
2020/12/05 02:59:37;;;;;;;27.45;25.52;;;;;;;;;;5076411;28;20654;-83
2020/12/05 03:02:04;;;;;;;26.63;24.50;;;;;;;;;;5076516;28;20267;-83
2020/12/05 03:04:31;;;;;;;26.75;24.92;;;;;;;;;;5076499;28;20200;-83
2020/12/05 03:06:57;;;;;;;27.35;25.35;;;;;;;;;;5076536;28;20201;-83
2020/12/05 03:09:24;;;;;;;27.20;25.10;;;;;;;;;;5076829;28;20217;-82
2020/12/05 03:11:51;;;;;;;27.40;25.30;;;;;;;;;;5058581;28;20650;-83
2020/12/05 03:14:18;;;;;;;26.83;24.92;;;;;;;;;;5076115;28;20581;-83
2020/12/05 03:16:46;;;;;;;27.80;25.90;;;;;;;;;;5076553;28;20240;-83
2020/12/05 03:19:13;;;;;;;27.00;25.10;;;;;;;;;;5076144;28;20188;-84
2020/12/05 03:21:40;;;;;;;27.55;25.42;;;;;;;;;;5076254;28;20217;-82
2020/12/05 03:24:06;;;;;;;27.65;25.75;;;;;;;;;;5076424;28;20189;-83
2020/12/05 03:26:33;;;;;;;28.38;26.17;;;;;;;;;;5058085;28;20201;-82
2020/12/05 03:29:01;;;;;;;29.17;26.88;;;;;;;;;;5075966;28;20559;-82
2020/12/05 03:31:41;;;;;;;28.63;26.42;;;;;;;;;;5075681;28;20233;-82
2020/12/05 03:34:09;;;;;;;28.77;26.67;;;;;;;;;;5075850;28;20195;-83
2020/12/05 03:36:36;;;;;;;30.35;28.05;;;;;;;;;;5058365;28;20197;-82
2020/12/05 03:39:03;;;;;;;29.83;27.35;;;;;;;;;;5075717;28;20663;-83
2020/12/05 03:41:30;;;;;;;28.98;26.77;;;;;;;;;;5075561;28;20587;-83
2020/12/05 03:43:56;;;;;;;30.48;27.85;;;;;;;;;;5074386;28;20214;-83
2020/12/05 03:46:23;;;;;;;30.67;28.00;;;;;;;;;;5075495;28;20665;-84
2020/12/05 03:48:50;;;;;;;30.50;28.10;;;;;;;;;;5075714;28;20217;-83
2020/12/05 03:51:18;;;;;;;32.28;29.55;;;;;;;;;;5075526;28;20201;-83
2020/12/05 03:53:45;;;;;;;30.23;27.77;;;;;;;;;;5075233;28;20193;-83
2020/12/05 03:56:12;;;;;;;30.70;27.92;;;;;;;;;;5075385;28;20205;-83
2020/12/05 03:58:39;;;;;;;31.60;29.10;;;;;;;;;;5058021;28;20221;-83
2020/12/05 04:01:06;;;;;;;30.17;27.98;;;;;;;;;;5057548;28;20226;-83
2020/12/05 04:03:33;;;;;;;32.95;29.90;;;;;;;;;;5057522;28;20246;-83
2020/12/05 04:06:00;;;;;;;32.58;29.70;;;;;;;;;;5075041;28;20185;-83
2020/12/05 04:08:28;;;;;;;30.48;27.95;;;;;;;;;;5075181;28;20199;-83
2020/12/05 04:10:55;;;;;;;32.55;29.95;;;;;;;;;;5075163;28;20197;-82
2020/12/05 04:13:22;;;;;;;32.75;29.75;;;;;;;;;;5074624;28;20212;-82
2020/12/05 04:15:49;;;;;;;33.53;30.50;;;;;;;;;;5074917;28;20213;-82
2020/12/05 04:18:16;;;;;;;34.15;31.25;;;;;;;;;;5074765;28;20193;-82
2020/12/05 04:20:43;;;;;;;32.60;29.83;;;;;;;;;;5074726;28;20748;-82
2020/12/05 04:23:10;;;;;;;33.13;29.80;;;;;;;;;;5074645;28;20587;-82
2020/12/05 04:25:37;;;;;;;33.78;30.33;;;;;;;;;;5074236;28;20665;-83
2020/12/05 04:28:04;;;;;;;34.05;30.98;;;;;;;;;;5074563;28;20306;-82
2020/12/05 04:30:31;;;;;;;36.42;33.00;;;;;;;;;;5074673;28;20646;-82
2020/12/05 04:32:58;;;;;;;35.45;31.67;;;;;;;;;;5074226;28;20297;-82
2020/12/05 04:35:26;;;;;;;35.70;32.35;;;;;;;;;;5056776;28;20200;-82
2020/12/05 04:37:53;;;;;;;35.38;31.73;;;;;;;;;;5074428;28;20199;-82
2020/12/05 04:40:21;;;;;;;38.25;34.42;;;;;;;;;;5074637;28;20189;-82
2020/12/05 04:42:50;;;;;;;35.53;32.05;;;;;;;;;;5074177;28;20221;-82
2020/12/05 04:45:17;;;;;;;34.55;31.52;;;;;;;;;;5074188;28;20210;-81
2020/12/05 04:47:44;;;;;;;34.28;31.25;;;;;;;;;;5073895;28;20208;-82
2020/12/05 04:50:12;;;;;;;34.83;31.60;;;;;;;;;;5074258;28;20189;-82
2020/12/05 04:52:48;;;;;;;36.00;32.45;;;;;;;;;;5074582;28;20184;-81
2020/12/05 04:55:15;;;;;;;35.92;32.22;;;;;;;;;;5073629;28;20279;-82
2020/12/05 04:57:45;;;;;;;35.30;32.00;;;;;;;;;;5074483;28;20218;-81
2020/12/05 05:00:13;;;;;;;36.33;32.03;;;;;;;;;;5074259;28;20239;-81
2020/12/05 05:02:42;;;;;;;38.00;34.15;;;;;;;;;;5073678;28;20244;-82
2020/12/05 05:05:09;;;;;;;35.70;32.25;;;;;;;;;;5074278;28;20219;-81
2020/12/05 05:07:37;;;;;;;36.42;33.35;;;;;;;;;;5074162;28;20197;-81
2020/12/05 05:10:10;;;;;;;34.95;31.75;;;;;;;;;;5073781;28;20195;-81
2020/12/05 05:12:37;;;;;;;34.25;31.00;;;;;;;;;;5074379;28;20212;-82
2020/12/05 05:15:16;;;;;;;35.83;32.70;;;;;;;;;;5056056;28;20691;-82
2020/12/05 05:17:48;;;;;;;35.42;31.63;;;;;;;;;;5074286;28;20192;-81
2020/12/05 05:20:20;;;;;;;32.55;29.85;;;;;;;;;;5074440;28;20216;-81
2020/12/05 05:22:47;;;;;;;37.15;33.65;;;;;;;;;;5074882;28;20622;-81
2020/12/05 05:25:14;;;;;;;39.22;35.70;;;;;;;;;;5074082;28;20193;-81
2020/12/05 05:27:41;;;;;;;35.47;32.30;;;;;;;;;;5074080;28;20209;-82
2020/12/05 05:30:09;;;;;;;35.58;32.47;;;;;;;;;;5073800;28;20552;-82
2020/12/05 05:32:44;;;;;;;35.08;31.95;;;;;;;;;;5073474;28;20259;-82
2020/12/05 05:35:13;;;;;;;36.13;32.58;;;;;;;;;;5073958;28;20605;-82
2020/12/05 05:37:40;;;;;;;34.60;31.70;;;;;;;;;;5073744;28;20541;-82
2020/12/05 05:40:09;;;;;;;35.38;32.28;;;;;;;;;;5073941;28;20200;-81
2020/12/05 05:42:37;;;;;;;37.58;34.28;;;;;;;;;;5073566;28;20228;-81
2020/12/05 05:45:16;;;;;;;38.13;34.72;;;;;;;;;;5073613;28;20289;-82
2020/12/05 05:47:44;;;;;;;39.88;35.97;;;;;;;;;;5073907;28;20189;-81
2020/12/05 05:50:22;;;;;;;41.80;38.00;;;;;;;;;;5073645;28;20220;-82
2020/12/05 05:52:54;;;;;;;37.53;34.13;;;;;;;;;;5074034;28;20223;-82
2020/12/05 05:55:20;;;;;;;36.05;32.83;;;;;;;;;;5073404;28;20628;-81
2020/12/05 05:57:48;;;;;;;35.00;31.95;;;;;;;;;;5073857;28;20544;-82
2020/12/05 06:00:15;;;;;;;35.72;32.75;;;;;;;;;;5073600;28;20193;-82
2020/12/05 06:02:49;;;;;;;36.10;32.92;;;;;;;;;;5073374;28;20263;-81
2020/12/05 06:05:17;;;;;;;35.10;32.10;;;;;;;;;;5073550;28;20196;-80
2020/12/05 06:07:46;;;;;;;35.80;32.70;;;;;;;;;;5075494;28;20190;-81
2020/12/05 06:10:13;;;;;;;35.72;32.38;;;;;;;;;;5077037;28;20193;-81
2020/12/05 06:12:40;;;;;;;38.17;34.47;;;;;;;;;;5059104;28;20232;-81
2020/12/05 06:15:07;;;;;;;36.40;32.85;;;;;;;;;;5077141;28;20271;-81
2020/12/05 06:17:33;;;;;;;35.03;31.75;;;;;;;;;;5077187;28;20192;-81
2020/12/05 06:20:01;;;;;;;36.08;32.67;;;;;;;;;;5076852;28;20212;-81
2020/12/05 06:22:36;;;;;;;37.58;34.20;;;;;;;;;;5059150;28;20225;-81
2020/12/05 06:25:06;;;;;;;36.05;32.67;;;;;;;;;;5077009;28;20193;-81
2020/12/05 06:27:33;;;;;;;36.35;32.95;;;;;;;;;;5076521;28;20201;-82
2020/12/05 06:30:00;;;;;;;35.17;31.83;;;;;;;;;;5076945;28;20201;-81
2020/12/05 06:32:40;;;;;;;39.72;35.53;;;;;;;;;;5076458;28;20231;-82
2020/12/05 06:35:27;;;;;;;35.53;31.92;;;;;;;;;;5076618;28;20220;-81
2020/12/05 06:37:55;;;;;;;39.05;35.45;;;;;;;;;;5076366;28;20203;-81
2020/12/05 06:40:23;;;;;;;36.40;33.15;;;;;;;;;;5076656;28;20193;-80
2020/12/05 06:42:51;;;;;;;38.33;34.55;;;;;;;;;;5076588;28;20221;-81
2020/12/05 06:45:32;;;;;;;36.05;32.67;;;;;;;;;;5076260;28;20627;-80
2020/12/05 06:48:14;;;;;;;40.88;35.05;;;;;;;;;;5075951;28;20211;-81
2020/12/05 06:50:42;;;;;;;37.10;33.55;;;;;;;;;;5075797;28;20535;-81
2020/12/05 06:53:28;;;;;;;41.05;36.90;;;;;;;;;;5076445;28;20216;-81
2020/12/05 06:55:56;;;;;;;41.28;37.05;;;;;;;;;;5076537;28;20545;-81
2020/12/05 06:58:27;;;;;;;43.13;38.35;;;;;;;;;;5076040;28;20197;-81
2020/12/05 07:00:54;;;;;;;41.00;36.92;;;;;;;;;;5076407;28;20190;-81
2020/12/05 07:03:25;;;;;;;41.88;37.30;;;;;;;;;;5076015;28;20219;-81
2020/12/05 07:05:52;;;;;;;40.00;36.17;;;;;;;;;;5075785;28;20251;-81
2020/12/05 07:08:23;;;;;;;47.08;37.90;;;;;;;;;;5075833;28;20524;-80
2020/12/05 07:10:53;;;;;;;42.55;38.42;;;;;;;;;;5076095;28;20190;-81
2020/12/05 07:13:22;;;;;;;43.85;39.17;;;;;;;;;;5057994;28;20209;-80
2020/12/05 07:15:48;;;;;;;41.63;37.35;;;;;;;;;;5075718;28;20259;-81
2020/12/05 07:18:20;;;;;;;46.90;40.05;;;;;;;;;;5075282;28;20196;-80
2020/12/05 07:20:47;;;;;;;42.28;37.95;;;;;;;;;;5075779;28;20217;-80
2020/12/05 07:23:15;;;;;;;42.85;38.13;;;;;;;;;;5075427;28;20266;-80
2020/12/05 07:25:43;;;;;;;44.38;38.95;;;;;;;;;;5075247;28;20657;-81
2020/12/05 07:28:10;;;;;;;44.00;39.58;;;;;;;;;;5075670;28;20192;-81
2020/12/05 07:30:38;;;;;;;46.88;40.60;;;;;;;;;;5075548;28;20211;-81
2020/12/05 07:33:07;;;;;;;61.05;42.97;;;;;;;;;;5075287;28;20300;-81
2020/12/05 07:35:35;;;;;;;50.28;40.80;;;;;;;;;;5075292;28;20704;-80
2020/12/05 07:38:02;;;;;;;44.85;40.03;;;;;;;;;;5058554;28;20192;-81
2020/12/05 07:40:29;;;;;;;43.00;37.78;;;;;;;;;;5057776;28;20205;-81
2020/12/05 07:42:56;;;;;;;45.83;41.13;;;;;;;;;;5075682;28;20212;-81
2020/12/05 07:45:23;;;;;;;47.13;40.67;;;;;;;;;;5075818;28;20262;-81
2020/12/05 07:47:51;;;;;;;47.38;42.25;;;;;;;;;;5075043;28;20192;-80
2020/12/05 07:50:18;;;;;;;45.90;40.28;;;;;;;;;;5057722;28;20213;-80
2020/12/05 07:52:45;;;;;;;45.92;40.47;;;;;;;;;;5074850;28;20688;-80
2020/12/05 07:55:12;;;;;;;50.10;40.75;;;;;;;;;;5075094;28;20210;-81
2020/12/05 07:57:40;;;;;;;46.42;40.92;;;;;;;;;;5076569;28;20193;-82
2020/12/05 08:00:07;;;;;;;46.58;41.30;;;;;;;;;;5075367;28;20198;-83
2020/12/05 08:02:51;;;;;;;48.75;41.65;;;;;;;;;;5074843;28;20282;-83
2020/12/05 08:05:43;;;;;;;45.05;40.40;;;;;;;;;;5061652;28;20208;-81
2020/12/05 08:08:12;;;;;;;47.42;42.22;;;;;;;;;;5074993;28;20196;-81
2020/12/05 08:10:39;;;;;;;54.17;44.30;;;;;;;;;;5074841;28;20189;-83
2020/12/05 08:13:30;;;;;;;44.03;39.75;;;;;;;;;;5074728;28;20602;-84
2020/12/05 08:16:02;;;;;;;47.05;39.03;;;;;;;;;;5074749;28;20198;-84
2020/12/05 08:18:30;;;;;;;49.85;45.15;;;;;;;;;;5074849;28;20655;-82
2020/12/05 08:20:58;;;;;;;52.58;47.85;;;;;;;;;;5074514;28;20642;-82
2020/12/05 08:23:26;;;;;;;56.97;51.10;;;;;;;;;;5074275;28;20740;-81
2020/12/05 08:25:54;;;;;;;50.60;45.47;;;;;;;;;;5057047;28;20197;-88
2020/12/05 08:28:21;;;;;;;45.45;38.60;;;;;;;;;;5074948;28;20217;-81
2020/12/05 08:30:48;;;;;;;44.55;39.97;;;;;;;;;;5073770;28;20251;-82
2020/12/05 08:33:16;;;;;;;40.55;36.45;;;;;;;;;;5073907;28;20232;-81
2020/12/05 08:35:43;;;;;;;41.08;36.67;;;;;;;;;;5074829;28;20189;-87
2020/12/05 08:38:13;;;;;;;38.05;34.42;;;;;;;;;;5074799;28;20584;-87
2020/12/05 08:40:40;;;;;;;40.88;36.70;;;;;;;;;;5074997;28;20191;-87
2020/12/05 08:43:08;;;;;;;39.40;35.25;;;;;;;;;;5074675;28;20290;-86
2020/12/05 08:45:38;;;;;;;39.72;35.88;;;;;;;;;;5074317;28;20259;-86
2020/12/05 08:48:15;;;;;;;37.75;34.15;;;;;;;;;;5074681;28;20583;-87
2020/12/05 08:50:42;;;;;;;37.92;34.35;;;;;;;;;;5074428;28;20709;-86
2020/12/05 08:53:11;;;;;;;39.83;36.42;;;;;;;;;;5056957;28;20198;-86
2020/12/05 08:55:47;;;;;;;40.80;36.65;;;;;;;;;;5074663;28;20195;-86
2020/12/05 08:58:14;;;;;;;37.55;34.05;;;;;;;;;;5074639;28;20200;-86
2020/12/05 09:00:41;;;;;;;41.03;37.05;;;;;;;;;;5074506;28;20189;-88
2020/12/05 09:03:21;;;;;;;40.35;36.17;;;;;;;;;;5074498;28;20694;-86
2020/12/05 09:05:48;;;;;;;38.70;34.72;;;;;;;;;;5074196;28;20219;-86
2020/12/05 09:08:20;;;;;;;38.83;35.03;;;;;;;;;;5074439;28;20189;-87
2020/12/05 09:10:48;;;;;;;37.20;33.50;;;;;;;;;;5074503;28;20273;-85
2020/12/05 09:13:15;;;;;;;34.63;31.60;;;;;;;;;;5074493;28;20197;-93
2020/12/05 09:15:58;;;;;;;36.92;33.13;;;;;;;;;;5074633;28;20212;-86
2020/12/05 09:18:25;;;;;;;35.08;31.77;;;;;;;;;;5074756;28;20189;-85
2020/12/05 09:20:52;;;;;;;35.33;32.33;;;;;;;;;;5074215;28;20247;-87
2020/12/05 09:23:30;;;;;;;33.80;30.95;;;;;;;;;;5074590;28;20214;-86
2020/12/05 09:26:01;;;;;;;33.88;30.77;;;;;;;;;;5074175;28;20219;-87
2020/12/05 09:28:28;;;;;;;31.38;28.73;;;;;;;;;;5056846;28;20588;-87
2020/12/05 09:30:55;;;;;;;31.20;28.45;;;;;;;;;;5074573;28;20251;-87
2020/12/05 09:33:22;;;;;;;33.65;30.65;;;;;;;;;;5073987;28;20267;-82
2020/12/05 09:35:49;;;;;;;30.45;27.95;;;;;;;;;;5074098;28;20220;-84
2020/12/05 09:38:16;;;;;;;30.98;28.50;;;;;;;;;;5074234;28;20193;-84
2020/12/05 09:40:44;;;;;;;32.53;29.83;;;;;;;;;;5074556;28;20217;-84
2020/12/05 09:43:11;;;;;;;31.23;28.55;;;;;;;;;;5077165;28;20217;-85
2020/12/05 09:45:38;;;;;;;31.60;29.00;;;;;;;;;;5078085;28;20262;-84
2020/12/05 09:48:05;;;;;;;30.85;28.20;;;;;;;;;;5078049;28;20246;-84
2020/12/05 09:50:32;;;;;;;30.70;28.25;;;;;;;;;;5077971;28;20632;-84
2020/12/05 09:52:59;;;;;;;39.38;29.05;;;;;;;;;;5078238;28;20247;-84
2020/12/05 09:55:26;;;;;;;30.85;28.25;;;;;;;;;;5077915;28;20229;-85
2020/12/05 09:57:54;;;;;;;31.65;28.98;;;;;;;;;;5060315;28;20197;-85
2020/12/05 10:00:22;;;;;;;30.50;28.00;;;;;;;;;;5078056;28;20194;-85
2020/12/05 10:02:49;;;;;;;33.55;30.70;;;;;;;;;;5078729;28;20224;-84
2020/12/05 10:05:16;;;;;;;30.60;28.20;;;;;;;;;;5078453;28;20193;-84
2020/12/05 10:07:43;;;;;;;31.45;28.90;;;;;;;;;;5078532;28;20279;-85
2020/12/05 10:10:11;;;;;;;31.70;29.20;;;;;;;;;;5078371;28;20190;-84
2020/12/05 10:12:38;;;;;;;32.83;30.13;;;;;;;;;;5077709;28;20210;-84
2020/12/05 10:15:06;;;;;;;31.77;29.27;;;;;;;;;;5077818;28;20632;-84
2020/12/05 10:17:33;;;;;;;32.08;29.58;;;;;;;;;;5078482;28;20186;-86
2020/12/05 10:20:00;;;;;;;32.30;29.83;;;;;;;;;;5060127;28;20193;-86
2020/12/05 10:22:27;;;;;;;30.55;28.05;;;;;;;;;;5077773;28;20225;-86
2020/12/05 10:24:54;;;;;;;32.13;29.52;;;;;;;;;;5077994;28;20200;-83
2020/12/05 10:27:21;;;;;;;33.53;30.77;;;;;;;;;;5078460;28;20194;-87
2020/12/05 10:29:47;;;;;;;32.10;29.67;;;;;;;;;;5077596;28;20190;-86
2020/12/05 10:32:15;;;;;;;32.25;29.75;;;;;;;;;;5077293;28;20702;-86
2020/12/05 10:34:42;;;;;;;33.72;31.02;;;;;;;;;;5077031;28;20256;-87
2020/12/05 10:37:09;;;;;;;34.25;31.58;;;;;;;;;;5059582;28;20190;-87
2020/12/05 10:39:36;;;;;;;33.55;30.75;;;;;;;;;;5076920;28;20628;-87
2020/12/05 10:42:03;;;;;;;34.80;32.00;;;;;;;;;;5076675;28;20214;-80
2020/12/05 10:44:30;;;;;;;32.47;29.77;;;;;;;;;;5076805;28;20197;-86
2020/12/05 10:46:57;;;;;;;33.72;31.02;;;;;;;;;;5077207;28;20197;-86
2020/12/05 10:49:28;;;;;;;35.05;32.35;;;;;;;;;;5059379;28;20202;-87
2020/12/05 10:51:55;;;;;;;32.33;29.67;;;;;;;;;;5077305;28;20201;-87
2020/12/05 10:54:22;;;;;;;31.17;28.55;;;;;;;;;;5076417;28;20226;-88
2020/12/05 10:56:49;;;;;;;29.75;27.35;;;;;;;;;;5076724;28;20205;-87
2020/12/05 10:59:16;;;;;;;32.80;29.85;;;;;;;;;;5059066;28;20643;-87
2020/12/05 11:01:43;;;;;;;30.92;28.27;;;;;;;;;;5076951;28;20280;-87
2020/12/05 11:04:10;;;;;;;28.48;26.25;;;;;;;;;;5076321;28;20668;-86
2020/12/05 11:06:38;;;;;;;30.55;28.13;;;;;;;;;;5076542;28;20198;-87
2020/12/05 11:09:05;;;;;;;31.17;28.65;;;;;;;;;;5076860;28;20218;-93
2020/12/05 11:11:31;;;;;;;24.42;22.73;;;;;;;;;;5076874;28;20194;-93
2020/12/05 11:13:58;;;;;;;34.08;31.23;;;;;;;;;;5076997;28;20221;-83
2020/12/05 11:16:26;;;;;;;32.20;29.48;;;;;;;;;;5058851;28;20215;-88
2020/12/05 11:18:53;;;;;;;31.75;29.33;;;;;;;;;;5058721;28;20681;-87
2020/12/05 11:21:20;;;;;;;29.90;27.60;;;;;;;;;;5075819;28;20208;-88
2020/12/05 11:23:48;;;;;;;32.17;29.48;;;;;;;;;;5075751;28;20717;-89
2020/12/05 11:26:19;;;;;;;30.17;27.67;;;;;;;;;;5058152;28;20205;-86
2020/12/05 11:28:47;;;;;;;32.88;29.98;;;;;;;;;;5076271;28;20242;-87
2020/12/05 11:31:13;;;;;;;32.05;29.55;;;;;;;;;;5075633;28;20233;-86
2020/12/05 11:33:40;;;;;;;32.53;29.95;;;;;;;;;;5076193;28;20190;-86
2020/12/05 11:36:07;;;;;;;30.88;28.27;;;;;;;;;;5076050;28;20239;-85
2020/12/05 11:38:34;;;;;;;30.45;28.15;;;;;;;;;;5076303;28;20623;-84
2020/12/05 11:41:02;;;;;;;30.13;27.73;;;;;;;;;;5075690;28;20195;-85
2020/12/05 11:43:29;;;;;;;32.70;30.10;;;;;;;;;;5076022;28;20216;-84
2020/12/05 11:45:56;;;;;;;30.67;28.00;;;;;;;;;;5075825;28;20191;-85
2020/12/05 11:48:23;;;;;;;30.25;27.75;;;;;;;;;;5058427;28;20209;-86
2020/12/05 11:50:50;;;;;;;31.38;28.95;;;;;;;;;;5075801;28;20195;-84
2020/12/05 11:53:17;;;;;;;29.90;27.60;;;;;;;;;;5075717;28;20193;-85
2020/12/05 11:55:43;;;;;;;28.67;26.27;;;;;;;;;;5058322;28;20198;-85
2020/12/05 11:58:11;;;;;;;29.73;27.20;;;;;;;;;;5075744;28;20287;-83
2020/12/05 12:00:38;;;;;;;30.23;27.83;;;;;;;;;;5075547;28;20693;-84
2020/12/05 12:03:05;;;;;;;30.15;27.95;;;;;;;;;;5057551;28;20222;-84
2020/12/05 12:05:32;;;;;;;31.13;28.73;;;;;;;;;;5074246;28;20551;-84
2020/12/05 12:07:59;;;;;;;27.92;25.65;;;;;;;;;;5075313;28;20209;-84
2020/12/05 12:10:26;;;;;;;28.15;25.95;;;;;;;;;;5075371;28;20189;-84
2020/12/05 12:12:52;;;;;;;29.67;27.27;;;;;;;;;;5075537;28;20186;-84
2020/12/05 12:15:20;;;;;;;28.20;26.08;;;;;;;;;;5075214;28;20218;-84
2020/12/05 12:17:47;;;;;;;29.42;27.08;;;;;;;;;;5075207;28;20253;-84
2020/12/05 12:20:14;;;;;;;28.63;26.40;;;;;;;;;;5057590;28;20235;-84
2020/12/05 12:22:41;;;;;;;27.58;25.45;;;;;;;;;;5057398;28;20211;-84
2020/12/05 12:25:08;;;;;;;27.45;25.35;;;;;;;;;;5074776;28;20204;-86
2020/12/05 12:27:34;;;;;;;38.17;25.25;;;;;;;;;;5075392;28;20200;-85
2020/12/05 12:30:01;;;;;;;28.92;26.83;;;;;;;;;;5074775;28;20189;-84
2020/12/05 12:32:29;;;;;;;28.92;26.83;;;;;;;;;;5074608;28;20688;-84
2020/12/05 12:34:56;;;;;;;28.42;26.25;;;;;;;;;;5074613;28;20563;-84
2020/12/05 12:37:23;;;;;;;28.85;26.15;;;;;;;;;;5074914;28;20194;-84
2020/12/05 12:39:50;;;;;;;28.30;25.90;;;;;;;;;;5074537;28;20201;-84
2020/12/05 12:42:16;;;;;;;27.90;25.80;;;;;;;;;;5074765;28;20228;-84
2020/12/05 12:44:43;;;;;;;28.80;25.98;;;;;;;;;;5074920;28;20189;-84
2020/12/05 12:47:23;;;;;;;27.38;25.48;;;;;;;;;;5074919;28;20196;-84
2020/12/05 12:49:51;;;;;;;26.70;24.70;;;;;;;;;;5074658;28;20283;-85
2020/12/05 12:52:18;;;;;;;27.65;25.48;;;;;;;;;;5074866;28;20201;-85
2020/12/05 12:54:45;;;;;;;26.67;24.77;;;;;;;;;;5074298;28;20195;-85
2020/12/05 12:57:12;;;;;;;25.30;23.60;;;;;;;;;;5074524;28;20672;-85
2020/12/05 12:59:38;;;;;;;27.33;25.23;;;;;;;;;;5074641;28;20201;-89
2020/12/05 13:02:05;;;;;;;26.48;24.58;;;;;;;;;;5074466;28;20192;-86
2020/12/05 13:04:32;;;;;;;25.83;24.05;;;;;;;;;;5074159;28;20639;-84
2020/12/05 13:07:00;;;;;;;27.27;25.48;;;;;;;;;;5074060;28;20193;-84
2020/12/05 13:09:27;;;;;;;26.48;24.67;;;;;;;;;;5074590;28;20193;-84
2020/12/05 13:11:54;;;;;;;27.17;25.42;;;;;;;;;;5074184;28;20197;-83
2020/12/05 13:14:21;;;;;;;27.58;25.70;;;;;;;;;;5074013;28;20224;-82
2020/12/05 13:16:48;;;;;;;27.08;25.17;;;;;;;;;;5074493;28;20202;-84
2020/12/05 13:19:15;;;;;;;25.52;23.92;;;;;;;;;;5075002;28;20543;-84
2020/12/05 13:21:42;;;;;;;26.50;24.80;;;;;;;;;;5075509;28;20195;-85
2020/12/05 13:24:09;;;;;;;27.15;25.35;;;;;;;;;;5073298;28;20564;-85
2020/12/05 13:26:36;;;;;;;26.60;24.80;;;;;;;;;;5074348;28;20193;-85
2020/12/05 13:29:03;;;;;;;27.52;25.73;;;;;;;;;;5074108;28;20197;-85
2020/12/05 13:31:30;;;;;;;27.20;25.40;;;;;;;;;;5074529;28;20234;-84
2020/12/05 13:33:57;;;;;;;28.30;26.25;;;;;;;;;;5074285;28;20735;-84
2020/12/05 13:36:24;;;;;;;27.80;25.85;;;;;;;;;;5074125;28;20188;-84
2020/12/05 13:38:51;;;;;;;26.27;24.63;;;;;;;;;;5074100;28;20184;-85
2020/12/05 13:41:19;;;;;;;26.40;24.60;;;;;;;;;;5074807;28;20550;-85
2020/12/05 13:43:46;;;;;;;26.35;24.55;;;;;;;;;;5073617;28;20219;-86
2020/12/05 13:46:15;;;;;;;27.50;25.65;;;;;;;;;;5074629;28;20197;-84
2020/12/05 13:48:42;;;;;;;27.30;25.40;;;;;;;;;;5073793;28;20209;-86
2020/12/05 13:51:09;;;;;;;26.00;24.30;;;;;;;;;;5073814;28;20201;-85
2020/12/05 13:53:36;;;;;;;28.08;25.85;;;;;;;;;;5073711;28;20196;-83
2020/12/05 13:56:03;;;;;;;26.75;24.88;;;;;;;;;;5073615;28;20633;-83
2020/12/05 13:58:30;;;;;;;26.10;24.50;;;;;;;;;;5073587;28;20190;-86
2020/12/05 14:00:59;;;;;;;26.48;24.77;;;;;;;;;;5073213;28;20196;-83
2020/12/05 14:03:26;;;;;;;26.10;24.50;;;;;;;;;;5073440;28;20303;-82
2020/12/05 14:05:54;;;;;;;27.75;25.65;;;;;;;;;;5073488;28;20632;-83
2020/12/05 14:08:20;;;;;;;26.20;24.35;;;;;;;;;;5073707;28;20188;-83
2020/12/05 14:10:47;;;;;;;26.30;24.60;;;;;;;;;;5073574;28;20193;-83
2020/12/05 14:13:15;;;;;;;26.75;24.85;;;;;;;;;;5073829;28;20642;-84
2020/12/05 14:15:42;;;;;;;26.00;24.30;;;;;;;;;;5073491;28;20189;-83
2020/12/05 14:18:10;;;;;;;26.17;24.25;;;;;;;;;;5073841;28;20187;-84
2020/12/05 14:20:37;;;;;;;26.15;24.48;;;;;;;;;;5073667;28;20285;-83
2020/12/05 14:23:03;;;;;;;25.17;23.63;;;;;;;;;;5073936;28;20282;-84